sensor_id;sensor_type;location;lat;lon;timestamp;P1;durP1;ratioP1;P2;durP2;ratioP2
54307;SDS011;40208;39.778;2.710;2022-07-10T00:01:49;4.53;;;2.45;;
54307;SDS011;40208;39.778;2.710;2022-07-10T00:04:34;7.57;;;1.80;;
54307;SDS011;40208;39.778;2.710;2022-07-10T00:07:19;3.08;;;1.70;;
54307;SDS011;40208;39.778;2.710;2022-07-10T00:10:04;3.30;;;1.70;;
54307;SDS011;40208;39.778;2.710;2022-07-10T00:12:52;7.07;;;2.85;;
54307;SDS011;40208;39.778;2.710;2022-07-10T00:15:37;4.85;;;1.90;;
54307;SDS011;40208;39.778;2.710;2022-07-10T00:18:22;4.82;;;2.08;;
54307;SDS011;40208;39.778;2.710;2022-07-10T00:21:07;4.60;;;1.85;;
54307;SDS011;40208;39.778;2.710;2022-07-10T00:23:52;4.80;;;1.80;;
54307;SDS011;40208;39.778;2.710;2022-07-10T00:26:36;5.70;;;2.28;;
54307;SDS011;40208;39.778;2.710;2022-07-10T00:29:21;3.05;;;1.80;;
54307;SDS011;40208;39.778;2.710;2022-07-10T00:32:06;5.07;;;1.90;;
54307;SDS011;40208;39.778;2.710;2022-07-10T00:34:51;11.35;;;2.00;;
54307;SDS011;40208;39.778;2.710;2022-07-10T00:37:36;7.95;;;1.67;;
54307;SDS011;40208;39.778;2.710;2022-07-10T00:40:21;3.78;;;2.00;;
54307;SDS011;40208;39.778;2.710;2022-07-10T00:43:08;7.18;;;2.33;;
54307;SDS011;40208;39.778;2.710;2022-07-10T00:45:53;2.78;;;1.77;;
54307;SDS011;40208;39.778;2.710;2022-07-10T00:48:38;5.07;;;1.63;;
54307;SDS011;40208;39.778;2.710;2022-07-10T00:51:24;4.15;;;1.92;;
54307;SDS011;40208;39.778;2.710;2022-07-10T00:54:10;4.68;;;1.80;;
54307;SDS011;40208;39.778;2.710;2022-07-10T00:56:55;3.13;;;2.17;;
54307;SDS011;40208;39.778;2.710;2022-07-10T00:59:40;3.45;;;1.90;;
54307;SDS011;40208;39.778;2.710;2022-07-10T01:02:26;3.35;;;1.80;;
54307;SDS011;40208;39.778;2.710;2022-07-10T01:05:11;5.13;;;1.92;;
54307;SDS011;40208;39.778;2.710;2022-07-10T01:07:55;5.13;;;2.30;;
54307;SDS011;40208;39.778;2.710;2022-07-10T01:10:40;6.00;;;1.75;;
54307;SDS011;40208;39.778;2.710;2022-07-10T01:13:26;4.00;;;2.00;;
54307;SDS011;40208;39.778;2.710;2022-07-10T01:16:11;4.75;;;1.60;;
54307;SDS011;40208;39.778;2.710;2022-07-10T01:18:57;5.15;;;1.80;;
54307;SDS011;40208;39.778;2.710;2022-07-10T01:21:42;4.50;;;1.73;;
54307;SDS011;40208;39.778;2.710;2022-07-10T01:24:26;4.82;;;1.65;;
54307;SDS011;40208;39.778;2.710;2022-07-10T01:27:11;8.98;;;1.80;;
54307;SDS011;40208;39.778;2.710;2022-07-10T01:29:56;7.82;;;1.90;;
54307;SDS011;40208;39.778;2.710;2022-07-10T01:32:43;8.60;;;2.05;;
54307;SDS011;40208;39.778;2.710;2022-07-10T01:35:28;7.03;;;1.95;;
54307;SDS011;40208;39.778;2.710;2022-07-10T01:38:12;4.82;;;1.73;;
54307;SDS011;40208;39.778;2.710;2022-07-10T01:40:57;5.15;;;1.92;;
54307;SDS011;40208;39.778;2.710;2022-07-10T01:43:42;7.03;;;2.00;;
54307;SDS011;40208;39.778;2.710;2022-07-10T01:46:29;2.63;;;1.38;;
54307;SDS011;40208;39.778;2.710;2022-07-10T01:49:14;5.75;;;1.70;;
54307;SDS011;40208;39.778;2.710;2022-07-10T01:51:59;5.53;;;1.70;;
54307;SDS011;40208;39.778;2.710;2022-07-10T01:54:44;3.75;;;1.35;;
54307;SDS011;40208;39.778;2.710;2022-07-10T01:57:29;5.85;;;1.70;;
54307;SDS011;40208;39.778;2.710;2022-07-10T02:00:13;6.32;;;1.95;;
54307;SDS011;40208;39.778;2.710;2022-07-10T02:02:59;4.10;;;1.73;;
54307;SDS011;40208;39.778;2.710;2022-07-10T02:06:02;4.80;;;2.00;;
54307;SDS011;40208;39.778;2.710;2022-07-10T02:08:47;4.90;;;2.13;;
54307;SDS011;40208;39.778;2.710;2022-07-10T02:11:32;4.68;;;1.80;;
54307;SDS011;40208;39.778;2.710;2022-07-10T02:14:17;11.48;;;1.80;;
54307;SDS011;40208;39.778;2.710;2022-07-10T02:17:02;4.43;;;1.42;;
54307;SDS011;40208;39.778;2.710;2022-07-10T02:19:47;3.75;;;1.50;;
54307;SDS011;40208;39.778;2.710;2022-07-10T02:22:32;1.88;;;1.50;;
54307;SDS011;40208;39.778;2.710;2022-07-10T02:25:17;9.43;;;1.45;;
54307;SDS011;40208;39.778;2.710;2022-07-10T02:28:02;3.92;;;1.30;;
54307;SDS011;40208;39.778;2.710;2022-07-10T02:30:47;6.38;;;1.77;;
54307;SDS011;40208;39.778;2.710;2022-07-10T02:33:32;2.67;;;1.45;;
54307;SDS011;40208;39.778;2.710;2022-07-10T02:36:17;3.95;;;1.50;;
54307;SDS011;40208;39.778;2.710;2022-07-10T02:39:02;8.07;;;2.35;;
54307;SDS011;40208;39.778;2.710;2022-07-10T02:41:47;4.28;;;1.67;;
54307;SDS011;40208;39.778;2.710;2022-07-10T02:44:32;3.88;;;1.38;;
54307;SDS011;40208;39.778;2.710;2022-07-10T02:47:17;5.63;;;1.58;;
54307;SDS011;40208;39.778;2.710;2022-07-10T02:50:02;3.47;;;1.90;;
54307;SDS011;40208;39.778;2.710;2022-07-10T02:52:47;6.47;;;1.60;;
54307;SDS011;40208;39.778;2.710;2022-07-10T02:55:32;5.78;;;1.60;;
54307;SDS011;40208;39.778;2.710;2022-07-10T02:58:17;3.33;;;1.42;;
54307;SDS011;40208;39.778;2.710;2022-07-10T03:01:03;2.97;;;1.52;;
54307;SDS011;40208;39.778;2.710;2022-07-10T03:03:48;6.30;;;1.77;;
54307;SDS011;40208;39.778;2.710;2022-07-10T03:06:33;3.67;;;1.70;;
54307;SDS011;40208;39.778;2.710;2022-07-10T03:09:18;7.63;;;1.75;;
54307;SDS011;40208;39.778;2.710;2022-07-10T03:12:03;3.55;;;1.98;;
54307;SDS011;40208;39.778;2.710;2022-07-10T03:14:48;4.70;;;1.52;;
54307;SDS011;40208;39.778;2.710;2022-07-10T03:17:33;5.32;;;1.98;;
54307;SDS011;40208;39.778;2.710;2022-07-10T03:20:18;4.68;;;2.15;;
54307;SDS011;40208;39.778;2.710;2022-07-10T03:23:03;2.75;;;1.60;;
54307;SDS011;40208;39.778;2.710;2022-07-10T03:25:48;7.78;;;1.83;;
54307;SDS011;40208;39.778;2.710;2022-07-10T03:28:32;4.40;;;1.88;;
54307;SDS011;40208;39.778;2.710;2022-07-10T03:31:17;3.70;;;1.50;;
54307;SDS011;40208;39.778;2.710;2022-07-10T03:34:02;11.30;;;1.67;;
54307;SDS011;40208;39.778;2.710;2022-07-10T03:36:47;8.15;;;1.73;;
54307;SDS011;40208;39.778;2.710;2022-07-10T03:39:32;3.05;;;1.55;;
54307;SDS011;40208;39.778;2.710;2022-07-10T03:42:17;3.38;;;1.70;;
54307;SDS011;40208;39.778;2.710;2022-07-10T03:45:02;5.93;;;1.45;;
54307;SDS011;40208;39.778;2.710;2022-07-10T03:47:47;3.03;;;1.40;;
54307;SDS011;40208;39.778;2.710;2022-07-10T03:50:32;4.18;;;1.60;;
54307;SDS011;40208;39.778;2.710;2022-07-10T03:53:18;4.88;;;1.70;;
54307;SDS011;40208;39.778;2.710;2022-07-10T03:56:03;2.33;;;1.70;;
54307;SDS011;40208;39.778;2.710;2022-07-10T03:58:49;2.78;;;1.40;;
54307;SDS011;40208;39.778;2.710;2022-07-10T04:01:34;7.95;;;1.58;;
54307;SDS011;40208;39.778;2.710;2022-07-10T04:04:19;3.47;;;1.85;;
54307;SDS011;40208;39.778;2.710;2022-07-10T04:07:04;5.70;;;1.60;;
54307;SDS011;40208;39.778;2.710;2022-07-10T04:09:48;8.30;;;1.73;;
54307;SDS011;40208;39.778;2.710;2022-07-10T04:12:33;3.70;;;1.50;;
54307;SDS011;40208;39.778;2.710;2022-07-10T04:15:18;3.88;;;1.38;;
54307;SDS011;40208;39.778;2.710;2022-07-10T04:18:04;9.57;;;2.08;;
54307;SDS011;40208;39.778;2.710;2022-07-10T04:20:49;5.53;;;2.25;;
54307;SDS011;40208;39.778;2.710;2022-07-10T04:23:34;8.43;;;1.92;;
54307;SDS011;40208;39.778;2.710;2022-07-10T04:26:19;13.68;;;2.30;;
54307;SDS011;40208;39.778;2.710;2022-07-10T04:29:04;5.40;;;1.77;;
54307;SDS011;40208;39.778;2.710;2022-07-10T04:31:49;5.55;;;1.67;;
54307;SDS011;40208;39.778;2.710;2022-07-10T04:34:33;6.00;;;1.90;;
54307;SDS011;40208;39.778;2.710;2022-07-10T04:37:18;5.88;;;1.90;;
54307;SDS011;40208;39.778;2.710;2022-07-10T04:40:03;4.45;;;1.85;;
54307;SDS011;40208;39.778;2.710;2022-07-10T04:42:49;6.75;;;2.20;;
54307;SDS011;40208;39.778;2.710;2022-07-10T04:45:34;10.07;;;2.08;;
54307;SDS011;40208;39.778;2.710;2022-07-10T04:48:18;6.55;;;1.45;;
54307;SDS011;40208;39.778;2.710;2022-07-10T04:51:03;3.75;;;1.50;;
54307;SDS011;40208;39.778;2.710;2022-07-10T04:53:48;4.10;;;1.75;;
54307;SDS011;40208;39.778;2.710;2022-07-10T04:56:32;4.38;;;2.03;;
54307;SDS011;40208;39.778;2.710;2022-07-10T04:59:18;8.68;;;1.88;;
54307;SDS011;40208;39.778;2.710;2022-07-10T05:02:03;3.72;;;1.73;;
54307;SDS011;40208;39.778;2.710;2022-07-10T05:04:48;6.82;;;1.50;;
54307;SDS011;40208;39.778;2.710;2022-07-10T05:07:33;5.50;;;1.50;;
54307;SDS011;40208;39.778;2.710;2022-07-10T05:10:18;6.32;;;1.70;;
54307;SDS011;40208;39.778;2.710;2022-07-10T05:13:02;5.80;;;1.90;;
54307;SDS011;40208;39.778;2.710;2022-07-10T05:15:47;5.65;;;2.03;;
54307;SDS011;40208;39.778;2.710;2022-07-10T05:18:32;5.13;;;1.83;;
54307;SDS011;40208;39.778;2.710;2022-07-10T05:21:17;5.28;;;1.92;;
54307;SDS011;40208;39.778;2.710;2022-07-10T05:24:02;15.05;;;2.38;;
54307;SDS011;40208;39.778;2.710;2022-07-10T05:26:47;3.08;;;1.60;;
54307;SDS011;40208;39.778;2.710;2022-07-10T05:29:32;5.63;;;2.00;;
54307;SDS011;40208;39.778;2.710;2022-07-10T05:32:17;5.13;;;1.98;;
54307;SDS011;40208;39.778;2.710;2022-07-10T05:35:01;5.82;;;2.03;;
54307;SDS011;40208;39.778;2.710;2022-07-10T05:37:46;6.90;;;2.70;;
54307;SDS011;40208;39.778;2.710;2022-07-10T05:40:31;8.35;;;3.53;;
54307;SDS011;40208;39.778;2.710;2022-07-10T05:43:16;11.05;;;5.72;;
54307;SDS011;40208;39.778;2.710;2022-07-10T05:46:01;18.00;;;9.20;;
54307;SDS011;40208;39.778;2.710;2022-07-10T05:48:46;8.30;;;4.10;;
54307;SDS011;40208;39.778;2.710;2022-07-10T05:51:31;12.55;;;3.90;;
54307;SDS011;40208;39.778;2.710;2022-07-10T05:54:16;16.38;;;7.13;;
54307;SDS011;40208;39.778;2.710;2022-07-10T05:57:01;109.10;;;43.85;;
54307;SDS011;40208;39.778;2.710;2022-07-10T05:59:46;106.43;;;42.03;;
54307;SDS011;40208;39.778;2.710;2022-07-10T06:02:31;111.88;;;48.67;;
54307;SDS011;40208;39.778;2.710;2022-07-10T06:05:16;102.47;;;42.42;;
54307;SDS011;40208;39.778;2.710;2022-07-10T06:08:00;139.98;;;56.83;;
54307;SDS011;40208;39.778;2.710;2022-07-10T06:10:45;139.20;;;54.08;;
54307;SDS011;40208;39.778;2.710;2022-07-10T06:13:30;120.10;;;51.83;;
54307;SDS011;40208;39.778;2.710;2022-07-10T06:16:15;98.85;;;32.05;;
54307;SDS011;40208;39.778;2.710;2022-07-10T06:19:00;38.00;;;18.45;;
54307;SDS011;40208;39.778;2.710;2022-07-10T06:21:45;28.83;;;11.93;;
54307;SDS011;40208;39.778;2.710;2022-07-10T06:24:30;29.55;;;11.20;;
54307;SDS011;40208;39.778;2.710;2022-07-10T06:27:15;21.50;;;9.10;;
54307;SDS011;40208;39.778;2.710;2022-07-10T06:30:00;17.33;;;7.82;;
54307;SDS011;40208;39.778;2.710;2022-07-10T06:32:45;13.63;;;7.07;;
54307;SDS011;40208;39.778;2.710;2022-07-10T06:35:30;14.02;;;6.35;;
54307;SDS011;40208;39.778;2.710;2022-07-10T06:38:14;11.43;;;4.65;;
54307;SDS011;40208;39.778;2.710;2022-07-10T06:41:00;14.10;;;4.38;;
54307;SDS011;40208;39.778;2.710;2022-07-10T06:43:45;8.30;;;3.97;;
54307;SDS011;40208;39.778;2.710;2022-07-10T06:46:30;17.00;;;5.80;;
54307;SDS011;40208;39.778;2.710;2022-07-10T06:49:16;24.45;;;8.95;;
54307;SDS011;40208;39.778;2.710;2022-07-10T06:52:01;11.85;;;4.95;;
54307;SDS011;40208;39.778;2.710;2022-07-10T06:54:45;13.02;;;4.93;;
54307;SDS011;40208;39.778;2.710;2022-07-10T06:57:30;17.40;;;7.32;;
54307;SDS011;40208;39.778;2.710;2022-07-10T07:00:15;19.27;;;6.78;;
54307;SDS011;40208;39.778;2.710;2022-07-10T07:03:00;20.70;;;7.57;;
54307;SDS011;40208;39.778;2.710;2022-07-10T07:05:45;6.57;;;3.83;;
54307;SDS011;40208;39.778;2.710;2022-07-10T07:08:30;27.88;;;15.07;;
54307;SDS011;40208;39.778;2.710;2022-07-10T07:11:15;153.07;;;67.90;;
54307;SDS011;40208;39.778;2.710;2022-07-10T07:14:00;104.00;;;48.22;;
54307;SDS011;40208;39.778;2.710;2022-07-10T07:16:45;150.63;;;68.70;;
54307;SDS011;40208;39.778;2.710;2022-07-10T07:19:38;158.07;;;70.50;;
54307;SDS011;40208;39.778;2.710;2022-07-10T07:22:41;89.72;;;41.92;;
54307;SDS011;40208;39.778;2.710;2022-07-10T07:25:45;167.60;;;74.38;;
54307;SDS011;40208;39.778;2.710;2022-07-10T07:28:32;78.63;;;37.08;;
54307;SDS011;40208;39.778;2.710;2022-07-10T07:31:17;71.15;;;33.53;;
54307;SDS011;40208;39.778;2.710;2022-07-10T07:34:04;45.75;;;20.15;;
54307;SDS011;40208;39.778;2.710;2022-07-10T07:36:49;44.38;;;20.05;;
54307;SDS011;40208;39.778;2.710;2022-07-10T07:39:34;29.35;;;13.48;;
54307;SDS011;40208;39.778;2.710;2022-07-10T07:42:20;36.33;;;16.83;;
54307;SDS011;40208;39.778;2.710;2022-07-10T07:45:05;29.20;;;14.23;;
54307;SDS011;40208;39.778;2.710;2022-07-10T07:47:51;28.98;;;12.65;;
54307;SDS011;40208;39.778;2.710;2022-07-10T07:50:40;58.03;;;21.20;;
54307;SDS011;40208;39.778;2.710;2022-07-10T07:53:25;51.45;;;21.75;;
54307;SDS011;40208;39.778;2.710;2022-07-10T07:56:09;32.40;;;14.00;;
54307;SDS011;40208;39.778;2.710;2022-07-10T07:58:54;35.80;;;14.50;;
54307;SDS011;40208;39.778;2.710;2022-07-10T08:01:39;19.42;;;9.60;;
54307;SDS011;40208;39.778;2.710;2022-07-10T08:04:24;20.23;;;7.32;;
54307;SDS011;40208;39.778;2.710;2022-07-10T08:07:09;17.38;;;8.40;;
54307;SDS011;40208;39.778;2.710;2022-07-10T08:09:54;25.75;;;7.85;;
54307;SDS011;40208;39.778;2.710;2022-07-10T08:12:39;17.15;;;6.80;;
54307;SDS011;40208;39.778;2.710;2022-07-10T08:15:25;11.77;;;5.55;;
54307;SDS011;40208;39.778;2.710;2022-07-10T08:18:10;9.25;;;2.97;;
54307;SDS011;40208;39.778;2.710;2022-07-10T08:20:55;9.45;;;4.35;;
54307;SDS011;40208;39.778;2.710;2022-07-10T08:23:39;10.27;;;3.85;;
54307;SDS011;40208;39.778;2.710;2022-07-10T08:26:24;7.30;;;3.85;;
54307;SDS011;40208;39.778;2.710;2022-07-10T08:29:09;7.30;;;3.60;;
54307;SDS011;40208;39.778;2.710;2022-07-10T08:31:54;6.63;;;2.88;;
54307;SDS011;40208;39.778;2.710;2022-07-10T08:34:39;8.98;;;3.53;;
54307;SDS011;40208;39.778;2.710;2022-07-10T08:37:24;6.25;;;2.53;;
54307;SDS011;40208;39.778;2.710;2022-07-10T08:40:10;6.80;;;2.13;;
54307;SDS011;40208;39.778;2.710;2022-07-10T08:42:57;6.00;;;2.15;;
54307;SDS011;40208;39.778;2.710;2022-07-10T08:45:42;2.90;;;1.70;;
54307;SDS011;40208;39.778;2.710;2022-07-10T08:48:27;2.55;;;1.20;;
54307;SDS011;40208;39.778;2.710;2022-07-10T08:51:18;2.83;;;1.23;;
54307;SDS011;40208;39.778;2.710;2022-07-10T08:54:08;2.65;;;1.33;;
54307;SDS011;40208;39.778;2.710;2022-07-10T08:56:53;5.72;;;1.80;;
54307;SDS011;40208;39.778;2.710;2022-07-10T08:59:38;3.00;;;1.40;;
54307;SDS011;40208;39.778;2.710;2022-07-10T09:02:23;4.47;;;1.20;;
54307;SDS011;40208;39.778;2.710;2022-07-10T09:05:08;3.10;;;1.45;;
54307;SDS011;40208;39.778;2.710;2022-07-10T09:07:53;6.40;;;1.27;;
54307;SDS011;40208;39.778;2.710;2022-07-10T09:10:38;4.50;;;1.02;;
54307;SDS011;40208;39.778;2.710;2022-07-10T09:13:23;2.22;;;1.10;;
54307;SDS011;40208;39.778;2.710;2022-07-10T09:16:19;3.42;;;1.23;;
54307;SDS011;40208;39.778;2.710;2022-07-10T09:22:10;3.60;;;1.30;;
54307;SDS011;40208;39.778;2.710;2022-07-10T09:24:55;3.28;;;1.33;;
54307;SDS011;40208;39.778;2.710;2022-07-10T09:27:53;2.67;;;1.15;;
54307;SDS011;40208;39.778;2.710;2022-07-10T09:30:42;1.83;;;1.08;;
54307;SDS011;40208;39.778;2.710;2022-07-10T09:33:31;4.57;;;1.00;;
54307;SDS011;40208;39.778;2.710;2022-07-10T09:36:17;2.20;;;1.13;;
54307;SDS011;40208;39.778;2.710;2022-07-10T09:39:03;2.00;;;1.30;;
54307;SDS011;40208;39.778;2.710;2022-07-10T09:41:49;2.30;;;1.08;;
54307;SDS011;40208;39.778;2.710;2022-07-10T09:44:34;2.05;;;1.15;;
54307;SDS011;40208;39.778;2.710;2022-07-10T09:47:22;2.30;;;1.20;;
54307;SDS011;40208;39.778;2.710;2022-07-10T09:53:07;2.97;;;1.05;;
54307;SDS011;40208;39.778;2.710;2022-07-10T09:55:56;3.53;;;0.88;;
54307;SDS011;40208;39.778;2.710;2022-07-10T09:58:45;2.17;;;1.13;;
54307;SDS011;40208;39.778;2.710;2022-07-10T10:01:36;1.77;;;0.82;;
54307;SDS011;40208;39.778;2.710;2022-07-10T10:04:24;4.97;;;1.50;;
54307;SDS011;40208;39.778;2.710;2022-07-10T10:07:12;1.20;;;1.00;;
54307;SDS011;40208;39.778;2.710;2022-07-10T10:10:02;3.75;;;1.05;;
54307;SDS011;40208;39.778;2.710;2022-07-10T10:12:52;2.85;;;0.95;;
54307;SDS011;40208;39.778;2.710;2022-07-10T10:15:42;1.10;;;0.95;;
54307;SDS011;40208;39.778;2.710;2022-07-10T10:18:28;7.47;;;1.23;;
54307;SDS011;40208;39.778;2.710;2022-07-10T10:21:13;3.67;;;1.50;;
54307;SDS011;40208;39.778;2.710;2022-07-10T10:23:58;1.40;;;0.98;;
54307;SDS011;40208;39.778;2.710;2022-07-10T10:26:45;3.28;;;1.02;;
54307;SDS011;40208;39.778;2.710;2022-07-10T10:29:30;2.75;;;1.08;;
54307;SDS011;40208;39.778;2.710;2022-07-10T10:32:15;2.13;;;1.30;;
54307;SDS011;40208;39.778;2.710;2022-07-10T10:35:01;1.92;;;0.90;;
54307;SDS011;40208;39.778;2.710;2022-07-10T10:37:50;3.70;;;0.82;;
54307;SDS011;40208;39.778;2.710;2022-07-10T10:40:35;3.25;;;1.40;;
54307;SDS011;40208;39.778;2.710;2022-07-10T10:43:21;2.30;;;1.10;;
54307;SDS011;40208;39.778;2.710;2022-07-10T10:46:23;2.75;;;1.30;;
54307;SDS011;40208;39.778;2.710;2022-07-10T10:49:09;1.10;;;0.93;;
54307;SDS011;40208;39.778;2.710;2022-07-10T10:51:57;2.10;;;1.15;;
54307;SDS011;40208;39.778;2.710;2022-07-10T10:57:41;2.47;;;1.20;;
54307;SDS011;40208;39.778;2.710;2022-07-10T11:00:32;3.78;;;1.00;;
54307;SDS011;40208;39.778;2.710;2022-07-10T11:03:22;3.85;;;1.23;;
54307;SDS011;40208;39.778;2.710;2022-07-10T11:06:12;4.35;;;1.40;;
54307;SDS011;40208;39.778;2.710;2022-07-10T11:08:58;3.63;;;1.27;;
54307;SDS011;40208;39.778;2.710;2022-07-10T11:11:44;2.92;;;1.27;;
54307;SDS011;40208;39.778;2.710;2022-07-10T11:14:45;4.57;;;1.60;;
54307;SDS011;40208;39.778;2.710;2022-07-10T11:17:32;4.35;;;1.50;;
54307;SDS011;40208;39.778;2.710;2022-07-10T11:20:16;5.68;;;1.42;;
54307;SDS011;40208;39.778;2.710;2022-07-10T11:26:09;4.65;;;1.55;;
54307;SDS011;40208;39.778;2.710;2022-07-10T11:29:03;4.93;;;1.67;;
54307;SDS011;40208;39.778;2.710;2022-07-10T11:31:53;3.17;;;1.30;;
54307;SDS011;40208;39.778;2.710;2022-07-10T11:34:38;9.32;;;1.52;;
54307;SDS011;40208;39.778;2.710;2022-07-10T11:37:23;2.40;;;1.20;;
54307;SDS011;40208;39.778;2.710;2022-07-10T11:40:12;1.50;;;0.95;;
54307;SDS011;40208;39.778;2.710;2022-07-10T11:42:57;5.55;;;1.50;;
54307;SDS011;40208;39.778;2.710;2022-07-10T11:45:43;6.60;;;1.90;;
54307;SDS011;40208;39.778;2.710;2022-07-10T11:48:28;2.85;;;1.55;;
54307;SDS011;40208;39.778;2.710;2022-07-10T11:54:13;3.70;;;1.40;;
54307;SDS011;40208;39.778;2.710;2022-07-10T11:57:04;3.00;;;1.25;;
54307;SDS011;40208;39.778;2.710;2022-07-10T11:59:50;3.85;;;1.58;;
54307;SDS011;40208;39.778;2.710;2022-07-10T12:02:35;5.57;;;1.40;;
54307;SDS011;40208;39.778;2.710;2022-07-10T12:05:30;3.83;;;1.20;;
54307;SDS011;40208;39.778;2.710;2022-07-10T12:08:19;7.55;;;1.45;;
54307;SDS011;40208;39.778;2.710;2022-07-10T12:11:25;9.68;;;1.83;;
54307;SDS011;40208;39.778;2.710;2022-07-10T12:16:56;2.00;;;1.50;;
54307;SDS011;40208;39.778;2.710;2022-07-10T12:19:41;3.80;;;1.50;;
54307;SDS011;40208;39.778;2.710;2022-07-10T12:22:27;2.35;;;1.40;;
54307;SDS011;40208;39.778;2.710;2022-07-10T12:25:12;3.97;;;1.40;;
54307;SDS011;40208;39.778;2.710;2022-07-10T12:27:57;3.63;;;1.33;;
54307;SDS011;40208;39.778;2.710;2022-07-10T12:30:46;3.03;;;1.35;;
54307;SDS011;40208;39.778;2.710;2022-07-10T12:33:35;7.13;;;1.52;;
54307;SDS011;40208;39.778;2.710;2022-07-10T12:36:20;5.90;;;1.55;;
54307;SDS011;40208;39.778;2.710;2022-07-10T12:39:05;2.88;;;1.33;;
54307;SDS011;40208;39.778;2.710;2022-07-10T12:44:45;6.97;;;2.03;;
54307;SDS011;40208;39.778;2.710;2022-07-10T12:47:42;5.53;;;1.50;;
54307;SDS011;40208;39.778;2.710;2022-07-10T12:50:29;2.72;;;1.38;;
54307;SDS011;40208;39.778;2.710;2022-07-10T12:53:13;5.65;;;1.50;;
54307;SDS011;40208;39.778;2.710;2022-07-10T12:55:59;3.95;;;1.60;;
54307;SDS011;40208;39.778;2.710;2022-07-10T12:58:44;4.28;;;1.73;;
54307;SDS011;40208;39.778;2.710;2022-07-10T13:01:50;4.63;;;1.58;;
54307;SDS011;40208;39.778;2.710;2022-07-10T13:04:34;9.38;;;3.40;;
54307;SDS011;40208;39.778;2.710;2022-07-10T13:07:19;10.43;;;1.77;;
54307;SDS011;40208;39.778;2.710;2022-07-10T13:10:06;8.27;;;2.05;;
54307;SDS011;40208;39.778;2.710;2022-07-10T13:12:51;7.45;;;2.80;;
54307;SDS011;40208;39.778;2.710;2022-07-10T13:15:36;11.45;;;3.53;;
54307;SDS011;40208;39.778;2.710;2022-07-10T13:18:27;14.13;;;2.40;;
54307;SDS011;40208;39.778;2.710;2022-07-10T13:21:12;4.72;;;2.20;;
54307;SDS011;40208;39.778;2.710;2022-07-10T13:23:57;8.98;;;2.50;;
54307;SDS011;40208;39.778;2.710;2022-07-10T13:26:41;5.35;;;1.50;;
54307;SDS011;40208;39.778;2.710;2022-07-10T13:29:26;6.88;;;1.23;;
54307;SDS011;40208;39.778;2.710;2022-07-10T13:32:11;6.00;;;2.00;;
54307;SDS011;40208;39.778;2.710;2022-07-10T13:34:56;2.58;;;1.38;;
54307;SDS011;40208;39.778;2.710;2022-07-10T13:37:41;1.38;;;1.00;;
54307;SDS011;40208;39.778;2.710;2022-07-10T13:40:26;2.55;;;1.15;;
54307;SDS011;40208;39.778;2.710;2022-07-10T13:43:12;7.57;;;1.50;;
54307;SDS011;40208;39.778;2.710;2022-07-10T13:45:58;2.58;;;1.30;;
54307;SDS011;40208;39.778;2.710;2022-07-10T13:48:44;4.13;;;1.58;;
54307;SDS011;40208;39.778;2.710;2022-07-10T13:51:29;3.08;;;1.70;;
54307;SDS011;40208;39.778;2.710;2022-07-10T13:54:14;2.47;;;1.20;;
54307;SDS011;40208;39.778;2.710;2022-07-10T13:56:58;3.67;;;1.50;;
54307;SDS011;40208;39.778;2.710;2022-07-10T13:59:43;2.38;;;1.30;;
54307;SDS011;40208;39.778;2.710;2022-07-10T14:02:30;3.20;;;1.52;;
54307;SDS011;40208;39.778;2.710;2022-07-10T14:05:14;2.75;;;1.30;;
54307;SDS011;40208;39.778;2.710;2022-07-10T14:07:59;3.35;;;1.58;;
54307;SDS011;40208;39.778;2.710;2022-07-10T14:10:44;3.35;;;1.45;;
54307;SDS011;40208;39.778;2.710;2022-07-10T14:13:29;2.25;;;1.40;;
54307;SDS011;40208;39.778;2.710;2022-07-10T14:16:14;2.42;;;1.20;;
54307;SDS011;40208;39.778;2.710;2022-07-10T14:18:59;4.88;;;1.25;;
54307;SDS011;40208;39.778;2.710;2022-07-10T14:21:44;3.95;;;1.40;;
54307;SDS011;40208;39.778;2.710;2022-07-10T14:24:29;6.07;;;1.50;;
54307;SDS011;40208;39.778;2.710;2022-07-10T14:27:13;5.20;;;1.33;;
54307;SDS011;40208;39.778;2.710;2022-07-10T14:29:59;6.13;;;1.63;;
54307;SDS011;40208;39.778;2.710;2022-07-10T14:32:43;2.22;;;1.35;;
54307;SDS011;40208;39.778;2.710;2022-07-10T14:35:28;2.03;;;1.10;;
54307;SDS011;40208;39.778;2.710;2022-07-10T14:38:13;3.92;;;1.20;;
54307;SDS011;40208;39.778;2.710;2022-07-10T14:40:58;5.15;;;1.20;;
54307;SDS011;40208;39.778;2.710;2022-07-10T14:43:44;2.90;;;1.25;;
54307;SDS011;40208;39.778;2.710;2022-07-10T14:46:28;2.55;;;1.10;;
54307;SDS011;40208;39.778;2.710;2022-07-10T14:49:13;3.70;;;1.40;;
54307;SDS011;40208;39.778;2.710;2022-07-10T14:51:58;3.97;;;1.42;;
54307;SDS011;40208;39.778;2.710;2022-07-10T14:54:43;1.60;;;1.05;;
54307;SDS011;40208;39.778;2.710;2022-07-10T14:57:27;3.60;;;1.30;;
54307;SDS011;40208;39.778;2.710;2022-07-10T15:00:12;2.88;;;1.08;;
54307;SDS011;40208;39.778;2.710;2022-07-10T15:02:57;2.47;;;1.25;;
54307;SDS011;40208;39.778;2.710;2022-07-10T15:05:43;2.55;;;1.13;;
54307;SDS011;40208;39.778;2.710;2022-07-10T15:08:27;4.35;;;1.40;;
54307;SDS011;40208;39.778;2.710;2022-07-10T15:11:13;4.72;;;1.33;;
54307;SDS011;40208;39.778;2.710;2022-07-10T15:13:58;2.70;;;1.30;;
54307;SDS011;40208;39.778;2.710;2022-07-10T15:16:45;1.83;;;1.17;;
54307;SDS011;40208;39.778;2.710;2022-07-10T15:19:31;3.67;;;1.70;;
54307;SDS011;40208;39.778;2.710;2022-07-10T15:22:15;2.30;;;1.33;;
54307;SDS011;40208;39.778;2.710;2022-07-10T15:25:02;2.33;;;1.20;;
54307;SDS011;40208;39.778;2.710;2022-07-10T15:27:47;1.70;;;1.00;;
54307;SDS011;40208;39.778;2.710;2022-07-10T15:30:31;2.33;;;1.20;;
54307;SDS011;40208;39.778;2.710;2022-07-10T15:33:16;1.92;;;1.42;;
54307;SDS011;40208;39.778;2.710;2022-07-10T15:36:01;45.53;;;3.30;;
54307;SDS011;40208;39.778;2.710;2022-07-10T15:38:47;43.33;;;3.63;;
54307;SDS011;40208;39.778;2.710;2022-07-10T15:41:32;9.27;;;1.85;;
54307;SDS011;40208;39.778;2.710;2022-07-10T15:44:18;5.63;;;1.65;;
54307;SDS011;40208;39.778;2.710;2022-07-10T15:47:03;4.60;;;1.55;;
54307;SDS011;40208;39.778;2.710;2022-07-10T15:49:48;1.50;;;0.98;;
54307;SDS011;40208;39.778;2.710;2022-07-10T15:52:33;2.88;;;1.30;;
54307;SDS011;40208;39.778;2.710;2022-07-10T15:55:18;3.60;;;1.25;;
54307;SDS011;40208;39.778;2.710;2022-07-10T15:58:03;2.92;;;1.30;;
54307;SDS011;40208;39.778;2.710;2022-07-10T16:00:48;4.38;;;1.17;;
54307;SDS011;40208;39.778;2.710;2022-07-10T16:03:32;4.03;;;1.30;;
54307;SDS011;40208;39.778;2.710;2022-07-10T16:06:17;2.88;;;1.30;;
54307;SDS011;40208;39.778;2.710;2022-07-10T16:09:05;6.70;;;1.23;;
54307;SDS011;40208;39.778;2.710;2022-07-10T16:11:49;3.20;;;1.23;;
54307;SDS011;40208;39.778;2.710;2022-07-10T16:14:34;3.75;;;1.38;;
54307;SDS011;40208;39.778;2.710;2022-07-10T16:17:19;3.63;;;1.23;;
54307;SDS011;40208;39.778;2.710;2022-07-10T16:20:04;3.63;;;1.20;;
54307;SDS011;40208;39.778;2.710;2022-07-10T16:22:49;4.15;;;1.23;;
54307;SDS011;40208;39.778;2.710;2022-07-10T16:25:34;1.23;;;1.10;;
54307;SDS011;40208;39.778;2.710;2022-07-10T16:28:38;1.88;;;1.10;;
54307;SDS011;40208;39.778;2.710;2022-07-10T16:31:23;2.28;;;1.13;;
54307;SDS011;40208;39.778;2.710;2022-07-10T16:34:09;7.57;;;1.65;;
54307;SDS011;40208;39.778;2.710;2022-07-10T16:36:56;2.88;;;1.40;;
54307;SDS011;40208;39.778;2.710;2022-07-10T16:39:41;3.20;;;1.35;;
54307;SDS011;40208;39.778;2.710;2022-07-10T16:42:26;5.05;;;1.40;;
54307;SDS011;40208;39.778;2.710;2022-07-10T16:45:11;3.10;;;1.33;;
54307;SDS011;40208;39.778;2.710;2022-07-10T16:47:56;8.07;;;1.52;;
54307;SDS011;40208;39.778;2.710;2022-07-10T16:50:41;3.42;;;1.13;;
54307;SDS011;40208;39.778;2.710;2022-07-10T16:53:26;2.25;;;1.30;;
54307;SDS011;40208;39.778;2.710;2022-07-10T16:56:11;5.35;;;1.40;;